This is the latest recevied weather packets stored in our database for station/object IT9RID. If no packets are shown the sender has not sent any weather packets the latest 10 day(s).
| Time | Temp. | Humidity | Pressure | Rain* | Wind** | Luminosity | Snow |
|---|---|---|---|---|---|---|---|
| 1788001078 | 30.56° C | 76% | 1017.5 hPa | 0 mm | - | - | - |
| 1788000478 | 31.11° C | 76% | 1017.3 hPa | 0 mm | - | - | - |
| 1787999878 | 31.67° C | 72% | 1017.1 hPa | 0 mm | - | - | - |
| 1787999277 | 31.11° C | 70% | 1016.9 hPa | 0 mm | - | - | - |
| 1787998677 | 31.67° C | 69% | 1016.8 hPa | 0 mm | - | - | - |
| 1787998078 | 31.11° C | 70% | 1016.6 hPa | 0 mm | - | - | - |
| 1787997477 | 31.67° C | 69% | 1016.7 hPa | 0 mm | - | - | - |
| 1787996877 | 31.67° C | 69% | 1016.5 hPa | 0 mm | - | - | - |
| 1787996277 | 31.67° C | 67% | 1016.5 hPa | 0 mm | - | - | - |
| 1787995678 | 31.11° C | 68% | 1016.4 hPa | 0 mm | - | - | - |
| 1787995077 | 31.11° C | 69% | 1016.4 hPa | 0 mm | - | - | - |
| 1787994476 | 31.67° C | 66% | 1016.3 hPa | 0 mm | - | - | - |
| 1787993876 | 32.22° C | 62% | 1016.1 hPa | 0 mm | - | - | - |
| 1787993278 | 31.67° C | 63% | 1016.1 hPa | 0 mm | - | - | - |
| 1787992677 | 31.67° C | 62% | 1016 hPa | 0 mm | - | - | - |
| 1787992076 | 31.67° C | 62% | 1016.1 hPa | 0 mm | - | - | - |
| 1787991485 | 31.67° C | 62% | 1016.1 hPa | 0 mm | - | - | - |
| 1787990875 | 31.67° C | 60% | 1016.1 hPa | 0 mm | - | - | - |
| 1787990275 | 31.67° C | 60% | 1016.1 hPa | 0 mm | - | - | - |
| 1787989675 | 31.11° C | 61% | 1015.9 hPa | 0 mm | - | - | - |
| 1787989076 | 31.11° C | 60% | 1015.7 hPa | 0 mm | - | - | - |
| 1787988476 | 31.11° C | 59% | 1015.7 hPa | 0 mm | - | - | - |
| 1787987875 | 30.56° C | 59% | 1015.6 hPa | 0 mm | - | - | - |
| 1787987274 | 30.56° C | 62% | 1015.6 hPa | 0 mm | - | - | - |
| 1787986684 | 30.56° C | 58% | 1015.6 hPa | 0 mm | - | - | - |
* Rain latest hour (hover to see other rain measurements)
** Current wind speed in m/s (hover to see current wind gust speed)